sensor_id;sensor_type;location;lat;lon;timestamp;pressure;altitude;pressure_sealevel;temperature;humidity
6942;BME280;3510;43.200;27.920;2023-02-28T00:01:34;101963.09;;;15.80;43.73
6942;BME280;3510;43.200;27.920;2023-02-28T00:04:14;102017.59;;;16.15;43.74
6942;BME280;3510;43.200;27.920;2023-02-28T00:06:55;102045.19;;;15.70;44.60
6942;BME280;3510;43.200;27.920;2023-02-28T01:36:07;102068.63;;;16.39;43.11
6942;BME280;3510;43.200;27.920;2023-02-28T01:38:35;102060.50;;;16.43;43.18
6942;BME280;3510;43.200;27.920;2023-02-28T01:41:01;102065.69;;;17.19;41.75
6942;BME280;3510;43.200;27.920;2023-02-28T01:43:29;102063.56;;;16.71;42.61
6942;BME280;3510;43.200;27.920;2023-02-28T01:45:57;102059.47;;;16.83;42.02
6942;BME280;3510;43.200;27.920;2023-02-28T01:48:27;102073.44;;;15.64;44.62
6942;BME280;3510;43.200;27.920;2023-02-28T01:50:59;102074.50;;;16.17;43.23
6942;BME280;3510;43.200;27.920;2023-02-28T01:53:32;102083.91;;;15.88;43.76
6942;BME280;3510;43.200;27.920;2023-02-28T01:56:00;102086.56;;;15.30;44.58
6942;BME280;3510;43.200;27.920;2023-02-28T01:58:30;102066.06;;;15.47;44.96
6942;BME280;3510;43.200;27.920;2023-02-28T02:00:57;102080.19;;;15.14;45.38
6942;BME280;3510;43.200;27.920;2023-02-28T02:03:24;102093.47;;;15.51;45.01
6942;BME280;3510;43.200;27.920;2023-02-28T02:05:51;102092.81;;;16.13;43.32
6942;BME280;3510;43.200;27.920;2023-02-28T02:08:20;102082.31;;;15.59;44.31
6942;BME280;3510;43.200;27.920;2023-02-28T02:10:50;102072.63;;;15.24;45.65
6942;BME280;3510;43.200;27.920;2023-02-28T02:13:23;102079.06;;;16.01;43.85
6942;BME280;3510;43.200;27.920;2023-02-28T02:15:55;102078.44;;;14.65;46.59
6942;BME280;3510;43.200;27.920;2023-02-28T02:18:26;102098.63;;;15.92;43.84
6942;BME280;3510;43.200;27.920;2023-02-28T02:21:02;102105.13;;;15.49;44.65
6942;BME280;3510;43.200;27.920;2023-02-28T02:23:45;102107.34;;;14.96;45.82
6942;BME280;3510;43.200;27.920;2023-02-28T02:26:21;102088.38;;;14.72;46.29
6942;BME280;3510;43.200;27.920;2023-02-28T02:28:56;102078.56;;;14.48;47.02
6942;BME280;3510;43.200;27.920;2023-02-28T02:31:33;102087.94;;;15.76;44.31
6942;BME280;3510;43.200;27.920;2023-02-28T02:36:48;102085.94;;;15.32;44.89
6942;BME280;3510;43.200;27.920;2023-02-28T02:39:19;102085.03;;;16.32;42.80
6942;BME280;3510;43.200;27.920;2023-02-28T02:41:51;102079.00;;;15.60;44.12
6942;BME280;3510;43.200;27.920;2023-02-28T02:44:19;102069.00;;;15.02;45.62
6942;BME280;3510;43.200;27.920;2023-02-28T02:46:48;102089.81;;;15.58;43.73
6942;BME280;3510;43.200;27.920;2023-02-28T02:49:18;102106.09;;;16.52;42.48
6942;BME280;3510;43.200;27.920;2023-02-28T02:51:48;102111.25;;;16.63;42.09
6942;BME280;3510;43.200;27.920;2023-02-28T02:54:17;102095.41;;;16.45;42.30
6942;BME280;3510;43.200;27.920;2023-02-28T02:56:45;102079.09;;;16.64;42.01
6942;BME280;3510;43.200;27.920;2023-02-28T02:59:13;102097.09;;;15.94;43.06
6942;BME280;3510;43.200;27.920;2023-02-28T03:01:45;102092.53;;;15.80;43.74
6942;BME280;3510;43.200;27.920;2023-02-28T03:04:12;102082.88;;;15.76;43.44
6942;BME280;3510;43.200;27.920;2023-02-28T03:06:41;102099.25;;;15.89;43.18
6942;BME280;3510;43.200;27.920;2023-02-28T03:09:09;102103.44;;;16.30;42.39
6942;BME280;3510;43.200;27.920;2023-02-28T03:11:36;102116.53;;;16.34;42.17
6942;BME280;3510;43.200;27.920;2023-02-28T03:14:07;102117.41;;;16.45;41.84
6942;BME280;3510;43.200;27.920;2023-02-28T03:16:49;102122.22;;;16.62;41.72
6942;BME280;3510;43.200;27.920;2023-02-28T03:19:22;102141.81;;;16.33;42.30
6942;BME280;3510;43.200;27.920;2023-02-28T03:21:53;102140.91;;;16.42;41.88
6942;BME280;3510;43.200;27.920;2023-02-28T03:24:25;102128.41;;;14.95;44.27
6942;BME280;3510;43.200;27.920;2023-02-28T03:26:57;102120.56;;;13.80;47.24
6942;BME280;3510;43.200;27.920;2023-02-28T03:29:27;102105.75;;;13.66;47.89
6942;BME280;3510;43.200;27.920;2023-02-28T03:31:58;102102.53;;;14.05;46.60
6942;BME280;3510;43.200;27.920;2023-02-28T03:34:26;102105.38;;;14.27;46.98
6942;BME280;3510;43.200;27.920;2023-02-28T03:36:55;102117.78;;;13.96;47.07
6942;BME280;3510;43.200;27.920;2023-02-28T03:39:26;102113.25;;;14.87;45.54
6942;BME280;3510;43.200;27.920;2023-02-28T03:41:56;102122.22;;;14.45;46.59
6942;BME280;3510;43.200;27.920;2023-02-28T03:44:25;102115.28;;;14.43;46.49
6942;BME280;3510;43.200;27.920;2023-02-28T03:46:56;102131.34;;;15.00;45.53
6942;BME280;3510;43.200;27.920;2023-02-28T03:49:26;102129.06;;;15.71;43.99
6942;BME280;3510;43.200;27.920;2023-02-28T03:51:54;102146.50;;;15.87;43.75
6942;BME280;3510;43.200;27.920;2023-02-28T03:54:23;102148.78;;;16.05;43.10
6942;BME280;3510;43.200;27.920;2023-02-28T03:56:54;102152.44;;;15.98;43.69
6942;BME280;3510;43.200;27.920;2023-02-28T03:59:24;102151.97;;;15.23;44.44
6942;BME280;3510;43.200;27.920;2023-02-28T04:01:52;102153.13;;;14.79;46.21
6942;BME280;3510;43.200;27.920;2023-02-28T04:04:20;102149.50;;;14.86;45.74
6942;BME280;3510;43.200;27.920;2023-02-28T04:06:49;102135.94;;;14.47;46.34
6942;BME280;3510;43.200;27.920;2023-02-28T04:09:15;102130.91;;;14.66;46.25
6942;BME280;3510;43.200;27.920;2023-02-28T04:11:42;102121.19;;;15.00;46.10
6942;BME280;3510;43.200;27.920;2023-02-28T04:14:11;102139.44;;;15.25;45.33
6942;BME280;3510;43.200;27.920;2023-02-28T04:16:39;102130.56;;;15.01;45.82
6942;BME280;3510;43.200;27.920;2023-02-28T04:19:06;102136.94;;;15.06;45.31
6942;BME280;3510;43.200;27.920;2023-02-28T04:21:33;102137.34;;;15.11;45.37
6942;BME280;3510;43.200;27.920;2023-02-28T04:24:00;102140.00;;;14.83;45.26
6942;BME280;3510;43.200;27.920;2023-02-28T04:26:28;102135.13;;;14.57;46.24
6942;BME280;3510;43.200;27.920;2023-02-28T04:28:54;102135.88;;;15.62;44.18
6942;BME280;3510;43.200;27.920;2023-02-28T04:31:22;102137.38;;;15.60;44.38
6942;BME280;3510;43.200;27.920;2023-02-28T04:33:49;102129.53;;;15.18;45.00
6942;BME280;3510;43.200;27.920;2023-02-28T04:36:15;102135.25;;;15.25;44.40
6942;BME280;3510;43.200;27.920;2023-02-28T04:38:43;102125.41;;;15.88;43.08
6942;BME280;3510;43.200;27.920;2023-02-28T04:41:09;102123.50;;;15.86;43.28
6942;BME280;3510;43.200;27.920;2023-02-28T04:43:36;102118.47;;;15.46;44.37
6942;BME280;3510;43.200;27.920;2023-02-28T04:46:03;102104.59;;;14.56;46.02
6942;BME280;3510;43.200;27.920;2023-02-28T04:48:33;102100.97;;;15.10;44.79
6942;BME280;3510;43.200;27.920;2023-02-28T04:51:00;102112.09;;;14.54;46.18
6942;BME280;3510;43.200;27.920;2023-02-28T04:53:27;102123.84;;;13.79;48.04
6942;BME280;3510;43.200;27.920;2023-02-28T04:55:54;102123.06;;;14.92;45.92
6942;BME280;3510;43.200;27.920;2023-02-28T04:58:22;102117.50;;;15.25;44.25
6942;BME280;3510;43.200;27.920;2023-02-28T05:00:49;102117.75;;;14.51;45.98
6942;BME280;3510;43.200;27.920;2023-02-28T05:03:17;102126.81;;;15.16;45.24
6942;BME280;3510;43.200;27.920;2023-02-28T05:05:45;102131.59;;;15.32;44.47
6942;BME280;3510;43.200;27.920;2023-02-28T05:08:11;102135.38;;;14.98;46.01
6942;BME280;3510;43.200;27.920;2023-02-28T05:10:38;102126.41;;;14.83;45.86
6942;BME280;3510;43.200;27.920;2023-02-28T05:13:05;102111.72;;;14.60;46.41
6942;BME280;3510;43.200;27.920;2023-02-28T05:15:32;102119.50;;;14.71;46.50
6942;BME280;3510;43.200;27.920;2023-02-28T05:17:58;102127.59;;;14.67;46.99
6942;BME280;3510;43.200;27.920;2023-02-28T05:20:25;102140.59;;;14.43;46.77
6942;BME280;3510;43.200;27.920;2023-02-28T05:22:53;102152.91;;;14.48;47.48
6942;BME280;3510;43.200;27.920;2023-02-28T05:25:20;102149.81;;;14.70;46.75
6942;BME280;3510;43.200;27.920;2023-02-28T05:27:47;102143.28;;;14.63;47.00
6942;BME280;3510;43.200;27.920;2023-02-28T05:30:14;102143.16;;;14.62;47.30
6942;BME280;3510;43.200;27.920;2023-02-28T05:32:41;102149.34;;;15.03;46.51
6942;BME280;3510;43.200;27.920;2023-02-28T05:35:09;102160.97;;;14.25;47.83
6942;BME280;3510;43.200;27.920;2023-02-28T05:37:36;102163.31;;;15.08;46.94
6942;BME280;3510;43.200;27.920;2023-02-28T05:40:04;102184.50;;;15.09;46.54
6942;BME280;3510;43.200;27.920;2023-02-28T05:42:32;102219.69;;;16.32;43.80
6942;BME280;3510;43.200;27.920;2023-02-28T05:44:58;102229.53;;;16.09;43.81
6942;BME280;3510;43.200;27.920;2023-02-28T05:47:25;102237.84;;;16.27;43.47
6942;BME280;3510;43.200;27.920;2023-02-28T05:49:51;102243.28;;;16.11;44.02
6942;BME280;3510;43.200;27.920;2023-02-28T05:52:18;102242.47;;;16.02;44.01
6942;BME280;3510;43.200;27.920;2023-02-28T05:54:45;102223.06;;;15.92;44.33
6942;BME280;3510;43.200;27.920;2023-02-28T05:57:13;102219.28;;;15.39;45.44
6942;BME280;3510;43.200;27.920;2023-02-28T05:59:41;102223.34;;;13.61;50.66
6942;BME280;3510;43.200;27.920;2023-02-28T06:02:08;102209.50;;;13.94;51.64
6942;BME280;3510;43.200;27.920;2023-02-28T06:04:37;102199.97;;;14.27;50.27
6942;BME280;3510;43.200;27.920;2023-02-28T06:07:06;102214.09;;;14.34;50.43
6942;BME280;3510;43.200;27.920;2023-02-28T06:09:32;102225.75;;;14.79;49.38
6942;BME280;3510;43.200;27.920;2023-02-28T06:11:59;102226.44;;;14.67;49.24
6942;BME280;3510;43.200;27.920;2023-02-28T06:14:30;102239.00;;;14.57;49.83
6942;BME280;3510;43.200;27.920;2023-02-28T06:16:57;102235.06;;;15.07;48.63
6942;BME280;3510;43.200;27.920;2023-02-28T06:19:23;102229.38;;;14.17;50.75
6942;BME280;3510;43.200;27.920;2023-02-28T06:21:50;102224.31;;;14.17;51.20
6942;BME280;3510;43.200;27.920;2023-02-28T06:24:17;102223.44;;;13.80;51.90
6942;BME280;3510;43.200;27.920;2023-02-28T06:26:44;102227.09;;;14.56;51.04
6942;BME280;3510;43.200;27.920;2023-02-28T06:29:10;102233.84;;;14.74;51.34
6942;BME280;3510;43.200;27.920;2023-02-28T06:31:39;102228.00;;;14.48;51.40
6942;BME280;3510;43.200;27.920;2023-02-28T06:34:05;102215.78;;;15.57;49.22
6942;BME280;3510;43.200;27.920;2023-02-28T06:36:32;102231.28;;;15.89;48.42
6942;BME280;3510;43.200;27.920;2023-02-28T06:39:01;102228.72;;;16.29;47.57
6942;BME280;3510;43.200;27.920;2023-02-28T06:41:28;102225.41;;;16.30;47.17
6942;BME280;3510;43.200;27.920;2023-02-28T06:43:54;102219.00;;;15.65;48.59
6942;BME280;3510;43.200;27.920;2023-02-28T06:46:21;102214.03;;;15.08;50.14
6942;BME280;3510;43.200;27.920;2023-02-28T06:48:49;102211.69;;;15.01;50.07
6942;BME280;3510;43.200;27.920;2023-02-28T06:51:16;102210.00;;;15.10;49.73
6942;BME280;3510;43.200;27.920;2023-02-28T06:53:43;102223.28;;;14.89;50.27
6942;BME280;3510;43.200;27.920;2023-02-28T06:56:11;102224.38;;;15.01;50.22
6942;BME280;3510;43.200;27.920;2023-02-28T06:58:38;102227.88;;;14.74;50.42
6942;BME280;3510;43.200;27.920;2023-02-28T07:01:05;102220.97;;;14.26;50.16
6942;BME280;3510;43.200;27.920;2023-02-28T07:03:32;102218.13;;;14.32;50.84
6942;BME280;3510;43.200;27.920;2023-02-28T07:06:02;102220.63;;;14.68;50.97
6942;BME280;3510;43.200;27.920;2023-02-28T07:08:29;102224.88;;;14.23;51.88
6942;BME280;3510;43.200;27.920;2023-02-28T07:10:56;102227.97;;;15.51;49.33
6942;BME280;3510;43.200;27.920;2023-02-28T07:13:23;102227.97;;;15.03;50.50
6942;BME280;3510;43.200;27.920;2023-02-28T07:15:53;102233.09;;;14.94;50.22
6942;BME280;3510;43.200;27.920;2023-02-28T07:18:20;102233.34;;;14.79;50.61
6942;BME280;3510;43.200;27.920;2023-02-28T07:20:46;102226.78;;;14.81;51.22
6942;BME280;3510;43.200;27.920;2023-02-28T07:23:14;102217.03;;;15.23;49.86
6942;BME280;3510;43.200;27.920;2023-02-28T07:25:41;102225.91;;;14.99;49.92
6942;BME280;3510;43.200;27.920;2023-02-28T07:28:08;102199.50;;;14.97;50.44
6942;BME280;3510;43.200;27.920;2023-02-28T07:30:35;102220.59;;;15.25;49.28
6942;BME280;3510;43.200;27.920;2023-02-28T07:33:01;102224.66;;;15.52;49.07
6942;BME280;3510;43.200;27.920;2023-02-28T07:35:29;102221.72;;;14.81;50.04
6942;BME280;3510;43.200;27.920;2023-02-28T07:37:56;102212.06;;;14.76;50.74
6942;BME280;3510;43.200;27.920;2023-02-28T07:40:24;102214.38;;;14.65;50.90
6942;BME280;3510;43.200;27.920;2023-02-28T07:42:51;102206.22;;;14.96;50.63
6942;BME280;3510;43.200;27.920;2023-02-28T07:45:18;102206.25;;;13.95;51.06
6942;BME280;3510;43.200;27.920;2023-02-28T07:47:45;102202.59;;;15.03;49.83
6942;BME280;3510;43.200;27.920;2023-02-28T07:50:12;102217.75;;;14.93;50.11
6942;BME280;3510;43.200;27.920;2023-02-28T07:52:39;102213.75;;;14.86;50.12
6942;BME280;3510;43.200;27.920;2023-02-28T07:55:07;102217.25;;;14.97;50.29
6942;BME280;3510;43.200;27.920;2023-02-28T07:57:35;102210.69;;;14.99;50.27
6942;BME280;3510;43.200;27.920;2023-02-28T08:00:02;102215.53;;;15.25;49.42
6942;BME280;3510;43.200;27.920;2023-02-28T08:02:29;102218.69;;;15.22;48.51
6942;BME280;3510;43.200;27.920;2023-02-28T08:04:55;102229.44;;;15.01;49.33
6942;BME280;3510;43.200;27.920;2023-02-28T08:07:22;102249.00;;;14.83;49.36
6942;BME280;3510;43.200;27.920;2023-02-28T08:09:48;102245.78;;;14.94;49.78
6942;BME280;3510;43.200;27.920;2023-02-28T08:12:15;102255.47;;;14.71;49.94
6942;BME280;3510;43.200;27.920;2023-02-28T08:14:43;102257.59;;;14.39;50.06
6942;BME280;3510;43.200;27.920;2023-02-28T08:17:10;102254.25;;;14.76;49.36
6942;BME280;3510;43.200;27.920;2023-02-28T08:19:37;102248.47;;;14.13;49.71
6942;BME280;3510;43.200;27.920;2023-02-28T08:22:04;102263.38;;;14.01;50.22
6942;BME280;3510;43.200;27.920;2023-02-28T08:24:31;102254.78;;;14.27;49.66
6942;BME280;3510;43.200;27.920;2023-02-28T08:26:58;102259.78;;;14.72;48.79
6942;BME280;3510;43.200;27.920;2023-02-28T08:29:24;102260.53;;;15.94;46.84
6942;BME280;3510;43.200;27.920;2023-02-28T08:31:52;102251.97;;;15.55;46.99
6942;BME280;3510;43.200;27.920;2023-02-28T08:34:19;102255.63;;;15.29;48.17
6942;BME280;3510;43.200;27.920;2023-02-28T08:36:46;102255.00;;;15.32;48.10
6942;BME280;3510;43.200;27.920;2023-02-28T08:39:12;102249.78;;;15.30;47.85
6942;BME280;3510;43.200;27.920;2023-02-28T08:41:39;102248.44;;;15.15;47.81
6942;BME280;3510;43.200;27.920;2023-02-28T08:44:06;102258.22;;;15.39;48.28
6942;BME280;3510;43.200;27.920;2023-02-28T08:46:33;102254.81;;;15.01;47.76
6942;BME280;3510;43.200;27.920;2023-02-28T08:49:00;102250.84;;;15.13;47.68
6942;BME280;3510;43.200;27.920;2023-02-28T08:51:27;102253.16;;;15.01;48.40
6942;BME280;3510;43.200;27.920;2023-02-28T08:53:54;102217.31;;;14.50;48.73
6942;BME280;3510;43.200;27.920;2023-02-28T08:56:21;102263.53;;;15.13;47.79
6942;BME280;3510;43.200;27.920;2023-02-28T08:58:48;102257.78;;;15.06;47.98
6942;BME280;3510;43.200;27.920;2023-02-28T09:01:15;102268.84;;;14.97;47.78
6942;BME280;3510;43.200;27.920;2023-02-28T09:03:42;102267.81;;;16.31;45.66
6942;BME280;3510;43.200;27.920;2023-02-28T09:06:12;102258.41;;;16.09;45.61
6942;BME280;3510;43.200;27.920;2023-02-28T09:08:39;102243.22;;;16.50;44.51
6942;BME280;3510;43.200;27.920;2023-02-28T09:11:06;102251.44;;;16.37;44.64
6942;BME280;3510;43.200;27.920;2023-02-28T09:13:33;102243.44;;;16.53;44.20
6942;BME280;3510;43.200;27.920;2023-02-28T09:16:00;102248.03;;;15.58;46.55
6942;BME280;3510;43.200;27.920;2023-02-28T09:18:28;102252.09;;;16.45;45.00
6942;BME280;3510;43.200;27.920;2023-02-28T09:20:54;102252.13;;;16.76;44.05
6942;BME280;3510;43.200;27.920;2023-02-28T09:23:35;102239.34;;;16.14;44.99
6942;BME280;3510;43.200;27.920;2023-02-28T09:26:03;102240.13;;;16.13;44.75
6942;BME280;3510;43.200;27.920;2023-02-28T09:28:30;102245.91;;;15.92;45.51
6942;BME280;3510;43.200;27.920;2023-02-28T09:30:56;102251.94;;;16.33;45.06
6942;BME280;3510;43.200;27.920;2023-02-28T09:33:24;102249.44;;;15.94;45.15
6942;BME280;3510;43.200;27.920;2023-02-28T09:35:56;102259.94;;;16.17;45.14
6942;BME280;3510;43.200;27.920;2023-02-28T09:38:23;102252.59;;;16.20;45.51
6942;BME280;3510;43.200;27.920;2023-02-28T09:40:54;102232.00;;;16.68;43.39
6942;BME280;3510;43.200;27.920;2023-02-28T09:43:23;102260.72;;;17.18;42.50
6942;BME280;3510;43.200;27.920;2023-02-28T09:45:54;102260.19;;;17.23;43.18
6942;BME280;3510;43.200;27.920;2023-02-28T09:48:29;102271.78;;;17.61;41.95
6942;BME280;3510;43.200;27.920;2023-02-28T09:51:02;102269.28;;;17.51;42.63
6942;BME280;3510;43.200;27.920;2023-02-28T09:53:32;102274.06;;;16.44;43.57
6942;BME280;3510;43.200;27.920;2023-02-28T09:56:04;102269.97;;;16.26;44.80
6942;BME280;3510;43.200;27.920;2023-02-28T09:58:37;102285.00;;;16.43;44.08
6942;BME280;3510;43.200;27.920;2023-02-28T10:01:12;102290.69;;;16.20;44.46
6942;BME280;3510;43.200;27.920;2023-02-28T10:03:47;102289.22;;;16.43;43.78
6942;BME280;3510;43.200;27.920;2023-02-28T10:06:20;102277.31;;;16.13;44.16
6942;BME280;3510;43.200;27.920;2023-02-28T10:08:53;102286.50;;;16.21;44.17
6942;BME280;3510;43.200;27.920;2023-02-28T10:11:25;102283.16;;;15.72;45.49
6942;BME280;3510;43.200;27.920;2023-02-28T10:13:57;102277.63;;;15.39;45.75
6942;BME280;3510;43.200;27.920;2023-02-28T10:16:31;102271.50;;;15.56;45.86
6942;BME280;3510;43.200;27.920;2023-02-28T10:19:04;102269.84;;;16.14;44.82
6942;BME280;3510;43.200;27.920;2023-02-28T10:21:36;102278.31;;;16.75;43.49
6942;BME280;3510;43.200;27.920;2023-02-28T10:24:14;102265.53;;;16.34;44.54
6942;BME280;3510;43.200;27.920;2023-02-28T10:26:47;102231.66;;;15.55;45.43
6942;BME280;3510;43.200;27.920;2023-02-28T10:29:15;102212.34;;;15.57;45.17
6942;BME280;3510;43.200;27.920;2023-02-28T10:31:42;102240.38;;;15.48;46.58
6942;BME280;3510;43.200;27.920;2023-02-28T10:34:12;102245.47;;;15.77;45.43
6942;BME280;3510;43.200;27.920;2023-02-28T10:36:39;102237.91;;;15.87;45.99
6942;BME280;3510;43.200;27.920;2023-02-28T10:42:01;102240.41;;;15.77;45.57
6942;BME280;3510;43.200;27.920;2023-02-28T10:44:28;102240.91;;;16.33;45.02
6942;BME280;3510;43.200;27.920;2023-02-28T10:46:55;102237.47;;;15.72;46.11
6942;BME280;3510;43.200;27.920;2023-02-28T10:49:25;102235.53;;;16.09;45.03
6942;BME280;3510;43.200;27.920;2023-02-28T10:51:55;102168.72;;;15.21;46.72
6942;BME280;3510;43.200;27.920;2023-02-28T10:54:27;102224.50;;;15.69;46.29
6942;BME280;3510;43.200;27.920;2023-02-28T10:57:18;102227.31;;;15.72;46.52
6942;BME280;3510;43.200;27.920;2023-02-28T10:59:50;102224.09;;;16.14;45.52
6942;BME280;3510;43.200;27.920;2023-02-28T11:02:32;102213.34;;;15.78;46.34
6942;BME280;3510;43.200;27.920;2023-02-28T11:05:00;102182.69;;;16.05;45.66
6942;BME280;3510;43.200;27.920;2023-02-28T11:07:31;102214.84;;;15.65;46.27
6942;BME280;3510;43.200;27.920;2023-02-28T11:09:58;102213.75;;;15.82;45.65
6942;BME280;3510;43.200;27.920;2023-02-28T11:12:36;102212.19;;;16.64;44.34
6942;BME280;3510;43.200;27.920;2023-02-28T11:15:14;102209.22;;;17.11;43.04
6942;BME280;3510;43.200;27.920;2023-02-28T11:17:53;102191.50;;;16.80;43.34
6942;BME280;3510;43.200;27.920;2023-02-28T11:20:23;102204.06;;;16.89;43.27
6942;BME280;3510;43.200;27.920;2023-02-28T11:22:51;102215.75;;;16.26;44.18
6942;BME280;3510;43.200;27.920;2023-02-28T11:25:23;102202.97;;;15.27;47.11
6942;BME280;3510;43.200;27.920;2023-02-28T11:27:53;102164.63;;;15.82;45.53
6942;BME280;3510;43.200;27.920;2023-02-28T11:30:27;102177.63;;;16.26;44.44
6942;BME280;3510;43.200;27.920;2023-02-28T11:33:19;102196.78;;;15.91;45.60
6942;BME280;3510;43.200;27.920;2023-02-28T11:35:49;102190.41;;;15.57;46.59
6942;BME280;3510;43.200;27.920;2023-02-28T11:38:16;102178.94;;;15.42;46.34
6942;BME280;3510;43.200;27.920;2023-02-28T11:40:47;102196.66;;;16.00;46.18
6942;BME280;3510;43.200;27.920;2023-02-28T11:43:38;102196.03;;;16.23;44.99
6942;BME280;3510;43.200;27.920;2023-02-28T11:46:22;102162.13;;;15.63;45.91
6942;BME280;3510;43.200;27.920;2023-02-28T11:48:59;102144.16;;;15.70;45.18
6942;BME280;3510;43.200;27.920;2023-02-28T11:51:32;102174.84;;;15.34;45.95
6942;BME280;3510;43.200;27.920;2023-02-28T11:54:16;102139.50;;;15.45;45.46
6942;BME280;3510;43.200;27.920;2023-02-28T11:56:53;102154.84;;;15.76;45.73
6942;BME280;3510;43.200;27.920;2023-02-28T11:59:35;102163.53;;;16.29;44.37
6942;BME280;3510;43.200;27.920;2023-02-28T12:02:23;102162.00;;;16.52;43.33
6942;BME280;3510;43.200;27.920;2023-02-28T12:04:58;102161.22;;;16.42;43.73
6942;BME280;3510;43.200;27.920;2023-02-28T12:07:35;102151.09;;;15.62;45.12
6942;BME280;3510;43.200;27.920;2023-02-28T12:10:13;102149.66;;;15.16;46.40
6942;BME280;3510;43.200;27.920;2023-02-28T12:12:48;102156.09;;;15.42;45.79
6942;BME280;3510;43.200;27.920;2023-02-28T12:15:37;102157.84;;;15.62;45.44
6942;BME280;3510;43.200;27.920;2023-02-28T12:18:19;102161.94;;;15.41;45.96
6942;BME280;3510;43.200;27.920;2023-02-28T12:20:56;102171.03;;;16.07;44.71
6942;BME280;3510;43.200;27.920;2023-02-28T12:23:49;102176.97;;;15.00;46.08
6942;BME280;3510;43.200;27.920;2023-02-28T12:26:22;102075.38;;;14.59;46.98
6942;BME280;3510;43.200;27.920;2023-02-28T12:28:59;102137.88;;;15.56;45.47
6942;BME280;3510;43.200;27.920;2023-02-28T12:31:34;102174.56;;;15.31;45.73
6942;BME280;3510;43.200;27.920;2023-02-28T12:34:05;102158.56;;;14.92;46.85
6942;BME280;3510;43.200;27.920;2023-02-28T12:36:35;102180.19;;;15.37;45.80
6942;BME280;3510;43.200;27.920;2023-02-28T12:39:08;102179.75;;;16.01;44.34
6942;BME280;3510;43.200;27.920;2023-02-28T12:41:41;102172.16;;;16.01;44.02
6942;BME280;3510;43.200;27.920;2023-02-28T12:44:12;102144.69;;;15.66;44.50
6942;BME280;3510;43.200;27.920;2023-02-28T12:46:44;102167.97;;;16.11;43.97
6942;BME280;3510;43.200;27.920;2023-02-28T12:49:17;102169.59;;;16.01;44.45
6942;BME280;3510;43.200;27.920;2023-02-28T12:51:45;102166.44;;;15.24;46.33
6942;BME280;3510;43.200;27.920;2023-02-28T12:54:17;102164.69;;;15.34;45.36
6942;BME280;3510;43.200;27.920;2023-02-28T12:56:49;102165.91;;;15.18;46.21
6942;BME280;3510;43.200;27.920;2023-02-28T12:59:25;102165.69;;;15.55;45.49
6942;BME280;3510;43.200;27.920;2023-02-28T13:02:09;102180.25;;;15.86;45.41
6942;BME280;3510;43.200;27.920;2023-02-28T13:04:56;102178.94;;;15.71;44.97
6942;BME280;3510;43.200;27.920;2023-02-28T13:07:40;102165.75;;;15.36;45.61
6942;BME280;3510;43.200;27.920;2023-02-28T13:10:12;102181.47;;;15.42;46.26
6942;BME280;3510;43.200;27.920;2023-02-28T13:12:48;102171.56;;;15.06;47.28
6942;BME280;3510;43.200;27.920;2023-02-28T13:15:18;102170.72;;;15.73;45.38
6942;BME280;3510;43.200;27.920;2023-02-28T13:17:51;102173.78;;;15.80;45.33
6942;BME280;3510;43.200;27.920;2023-02-28T13:20:20;102099.09;;;15.67;44.87
6942;BME280;3510;43.200;27.920;2023-02-28T13:22:49;102187.53;;;16.23;44.44
6942;BME280;3510;43.200;27.920;2023-02-28T13:31:14;102178.84;;;14.92;46.84
6942;BME280;3510;43.200;27.920;2023-02-28T13:36:41;102176.91;;;14.90;46.93
6942;BME280;3510;43.200;27.920;2023-02-28T13:41:49;102179.16;;;14.87;46.87
6942;BME280;3510;43.200;27.920;2023-02-28T13:44:16;102187.47;;;14.94;46.77
6942;BME280;3510;43.200;27.920;2023-02-28T13:49:26;102174.78;;;14.75;47.17
6942;BME280;3510;43.200;27.920;2023-02-28T13:54:42;102177.00;;;14.81;47.49
6942;BME280;3510;43.200;27.920;2023-02-28T13:57:14;102167.56;;;15.47;45.66
6942;BME280;3510;43.200;27.920;2023-02-28T13:59:48;102158.13;;;15.07;46.29
6942;BME280;3510;43.200;27.920;2023-02-28T14:02:26;102158.63;;;15.42;46.06
6942;BME280;3510;43.200;27.920;2023-02-28T14:04:59;102156.63;;;14.52;47.17
6942;BME280;3510;43.200;27.920;2023-02-28T14:07:27;102151.16;;;14.85;46.82
6942;BME280;3510;43.200;27.920;2023-02-28T14:10:00;102147.34;;;13.78;48.87
6942;BME280;3510;43.200;27.920;2023-02-28T14:17:53;102158.63;;;13.91;49.02
6942;BME280;3510;43.200;27.920;2023-02-28T14:20:20;102155.69;;;14.60;47.30
6942;BME280;3510;43.200;27.920;2023-02-28T14:22:51;102160.59;;;13.85;48.55
6942;BME280;3510;43.200;27.920;2023-02-28T14:25:25;102155.03;;;13.61;49.63
6942;BME280;3510;43.200;27.920;2023-02-28T14:28:03;102158.34;;;14.81;46.86
6942;BME280;3510;43.200;27.920;2023-02-28T14:33:18;102148.34;;;14.63;47.50
6942;BME280;3510;43.200;27.920;2023-02-28T14:35:52;102158.19;;;14.98;46.80
6942;BME280;3510;43.200;27.920;2023-02-28T14:38:23;102158.97;;;15.26;45.80
6942;BME280;3510;43.200;27.920;2023-02-28T14:40:54;102157.09;;;14.48;47.24
6942;BME280;3510;43.200;27.920;2023-02-28T14:43:22;102153.06;;;15.07;45.71
6942;BME280;3510;43.200;27.920;2023-02-28T14:45:50;102166.63;;;14.88;46.47
6942;BME280;3510;43.200;27.920;2023-02-28T14:48:17;102168.00;;;14.38;47.31
6942;BME280;3510;43.200;27.920;2023-02-28T14:50:48;102166.13;;;14.36;48.23
6942;BME280;3510;43.200;27.920;2023-02-28T14:53:18;102171.53;;;14.58;47.81
6942;BME280;3510;43.200;27.920;2023-02-28T14:55:46;102166.34;;;14.47;48.07
6942;BME280;3510;43.200;27.920;2023-02-28T14:58:19;102166.56;;;14.59;47.66
6942;BME280;3510;43.200;27.920;2023-02-28T15:00:48;102170.84;;;14.98;46.68
6942;BME280;3510;43.200;27.920;2023-02-28T15:03:18;102167.41;;;15.35;45.67
6942;BME280;3510;43.200;27.920;2023-02-28T15:05:50;102183.47;;;14.22;47.79
6942;BME280;3510;43.200;27.920;2023-02-28T15:08:20;102138.25;;;14.08;47.35
6942;BME280;3510;43.200;27.920;2023-02-28T15:10:50;102167.94;;;14.74;46.85
6942;BME280;3510;43.200;27.920;2023-02-28T15:13:19;102169.56;;;15.70;45.16